Time;durP1;ratioP1;P1;durP2;ratioP2;P2;SDS_P1;SDS_P2;PMS_P1;PMS_P2;Temp;Humidity;BMP_temperature;BMP_pressure;BME280_temperature;BME280_humidity;BME280_pressure;Samples;Min_cycle;Max_cycle;Signal;HPM_P1;HPM_P2
2022/05/27 00:02:18;;;;;;;;;;;11.50;99.90;;;;;;5093326;28;20340;-81
2022/05/27 00:04:43;;;;;;;;;;;11.40;99.90;;;;;;5093778;28;19908;-81
2022/05/27 00:07:09;;;;;;;;;;;11.40;99.90;;;;;;5092986;28;20368;-80
2022/05/27 00:09:35;;;;;;;;;;;11.40;99.90;;;;;;5093529;28;20261;-80
2022/05/27 00:12:00;;;;;;;;;;;11.30;99.90;;;;;;5093627;28;19999;-81
2022/05/27 00:14:26;;;;;;;;;;;11.30;99.90;;;;;;5092957;28;19908;-81
2022/05/27 00:16:51;;;;;;;;;;;11.30;99.90;;;;;;5093331;28;19920;-81
2022/05/27 00:19:17;;;;;;;;;;;11.30;99.90;;;;;;5093129;28;19912;-81
2022/05/27 00:21:43;;;;;;;;;;;11.20;99.90;;;;;;5093383;28;19908;-81
2022/05/27 00:24:09;;;;;;;;;;;11.20;99.90;;;;;;5093369;28;19920;-80
2022/05/27 00:26:34;;;;;;;;;;;11.10;99.90;;;;;;5093310;28;19912;-80
2022/05/27 00:29:00;;;;;;;;;;;11.00;99.90;;;;;;5093284;28;20021;-81
2022/05/27 00:31:26;;;;;;;;;;;11.10;99.90;;;;;;5108462;28;19973;-81
2022/05/27 00:33:51;;;;;;;;;;;11.00;99.90;;;;;;5093018;28;19919;-81
2022/05/27 00:36:17;;;;;;;;;;;10.90;99.90;;;;;;5092873;28;20299;-80
2022/05/27 00:38:43;;;;;;;;;;;10.90;99.90;;;;;;5093392;28;19908;-80
2022/05/27 00:41:09;;;;;;;;;;;11.00;99.90;;;;;;5093268;28;19937;-77
2022/05/27 00:43:35;;;;;;;;;;;11.00;99.90;;;;;;5096946;28;19908;-80
2022/05/27 00:46:03;;;;;;;;;;;11.00;99.90;;;;;;5097453;28;19908;-80
2022/05/27 00:48:31;;;;;;;;;;;11.20;99.90;;;;;;5096712;28;20574;-81
2022/05/27 00:50:57;;;;;;;;;;;11.20;99.90;;;;;;5097010;28;20319;-81
2022/05/27 00:53:32;;;;;;;;;;;11.20;99.90;;;;;;5096870;28;19994;-80
2022/05/27 00:55:59;;;;;;;;;;;11.30;99.90;;;;;;5096933;28;20414;-80
2022/05/27 00:58:27;;;;;;;;;;;11.30;99.90;;;;;;5096720;28;19915;-80
2022/05/27 01:00:53;;;;;;;;;;;11.20;99.90;;;;;;5097191;28;20357;-80
2022/05/27 01:03:19;;;;;;;;;;;11.20;99.90;;;;;;5096769;28;19958;-80
2022/05/27 01:05:45;;;;;;;;;;;11.10;99.90;;;;;;5097111;28;19908;-80
2022/05/27 01:08:12;;;;;;;;;;;11.10;99.90;;;;;;5096543;28;19915;-78
2022/05/27 01:11:01;;;;;;;;;;;11.10;99.90;;;;;;5096908;28;19912;-80
2022/05/27 01:13:55;;;;;;;;;;;11.10;99.90;;;;;;5090589;28;19958;-80
2022/05/27 01:16:40;;;;;;;;;;;11.10;99.90;;;;;;5086710;28;20356;-80
2022/05/27 01:22:19;;;;;;;;;;;11.00;99.90;;;;;;5080337;28;19915;-80
2022/05/27 01:24:56;;;;;;;;;;;11.00;99.90;;;;;;5096731;28;19908;-80
2022/05/27 01:27:40;;;;;;;;;;;11.00;99.90;;;;;;5096298;28;20010;-81
2022/05/27 01:30:17;;;;;;;;;;;10.80;99.90;;;;;;5096526;28;19912;-81
2022/05/27 01:32:54;;;;;;;;;;;10.70;99.90;;;;;;5096652;28;19955;-80
2022/05/27 01:35:28;;;;;;;;;;;10.70;99.90;;;;;;5096122;28;19965;-80
2022/05/27 01:37:57;;;;;;;;;;;10.80;99.90;;;;;;5096520;28;19916;-81
2022/05/27 01:40:26;;;;;;;;;;;10.70;99.90;;;;;;5096289;28;20010;-80
2022/05/27 01:43:21;;;;;;;;;;;10.70;99.90;;;;;;5096334;28;19908;-80
2022/05/27 01:46:01;;;;;;;;;;;10.70;99.90;;;;;;5086870;28;20002;-80
2022/05/27 01:48:29;;;;;;;;;;;10.80;99.90;;;;;;5095382;28;20337;-80
2022/05/27 01:51:07;;;;;;;;;;;10.80;99.90;;;;;;5096009;28;19947;-80
2022/05/27 01:53:46;;;;;;;;;;;10.70;99.90;;;;;;5095340;28;19996;-80
2022/05/27 01:56:31;;;;;;;;;;;10.80;99.90;;;;;;5096150;28;19909;-80
2022/05/27 01:58:59;;;;;;;;;;;10.70;99.90;;;;;;5096123;28;19912;-80
2022/05/27 02:01:32;;;;;;;;;;;10.70;99.90;;;;;;5111280;28;19911;-80
2022/05/27 02:04:01;;;;;;;;;;;10.70;99.90;;;;;;5096034;28;20406;-80
2022/05/27 02:06:31;;;;;;;;;;;10.70;99.90;;;;;;5110065;28;20384;-80
2022/05/27 02:08:57;;;;;;;;;;;10.70;99.90;;;;;;5095620;28;19916;-80
2022/05/27 02:11:23;;;;;;;;;;;10.60;99.90;;;;;;5095084;28;19912;-80
2022/05/27 02:13:54;;;;;;;;;;;10.60;99.90;;;;;;5099280;28;19962;-81
2022/05/27 02:16:29;;;;;;;;;;;10.60;99.90;;;;;;5097264;28;20292;-80
2022/05/27 02:18:58;;;;;;;;;;;10.60;99.90;;;;;;5095537;28;20369;-80
2022/05/27 02:21:29;;;;;;;;;;;10.60;99.90;;;;;;5094932;28;20319;-79
2022/05/27 02:23:58;;;;;;;;;;;10.50;99.90;;;;;;5095698;28;19915;-79
2022/05/27 02:26:26;;;;;;;;;;;10.50;99.90;;;;;;5094970;28;19915;-79
2022/05/27 02:28:55;;;;;;;;;;;10.60;99.90;;;;;;5111087;28;19916;-80
2022/05/27 02:31:22;;;;;;;;;;;10.70;99.90;;;;;;5095007;28;19919;-79
2022/05/27 02:36:41;;;;;;;;;;;10.70;99.90;;;;;;5095017;28;20296;-80
2022/05/27 02:39:07;;;;;;;;;;;10.70;99.90;;;;;;5094937;28;20308;-80
2022/05/27 02:41:52;;;;;;;;;;;10.60;99.90;;;;;;5094585;28;20053;-80
2022/05/27 02:44:20;;;;;;;;;;;10.60;99.90;;;;;;5094456;28;20357;-79
2022/05/27 02:47:07;;;;;;;;;;;10.60;99.90;;;;;;5095126;28;19912;-80
2022/05/27 02:49:37;;;;;;;;;;;10.60;99.90;;;;;;5094459;28;19995;-80
2022/05/27 02:52:09;;;;;;;;;;;10.50;99.90;;;;;;5095052;28;20053;-79
2022/05/27 02:54:43;;;;;;;;;;;10.50;99.90;;;;;;5094569;28;19915;-80
2022/05/27 02:57:18;;;;;;;;;;;10.40;99.90;;;;;;5094826;28;19961;-79
2022/05/27 02:59:43;;;;;;;;;;;10.40;99.90;;;;;;5095000;28;19915;-79
2022/05/27 03:02:11;;;;;;;;;;;10.40;99.90;;;;;;5095074;28;19912;-79
2022/05/27 03:04:39;;;;;;;;;;;10.40;99.90;;;;;;5105543;28;20156;-80
2022/05/27 03:07:10;;;;;;;;;;;10.30;99.90;;;;;;5105783;28;19908;-80
2022/05/27 03:10:00;;;;;;;;;;;10.20;99.90;;;;;;5096176;28;19918;-79
2022/05/27 03:12:26;;;;;;;;;;;10.20;99.90;;;;;;5094814;28;19916;-80
2022/05/27 03:14:51;;;;;;;;;;;10.20;99.90;;;;;;5094579;28;19909;-80
2022/05/27 03:17:31;;;;;;;;;;;10.20;99.90;;;;;;5094077;28;19958;-80
2022/05/27 03:20:15;;;;;;;;;;;10.20;99.90;;;;;;5094418;28;19913;-80
2022/05/27 03:22:49;;;;;;;;;;;10.20;99.90;;;;;;5093683;28;19914;-80
2022/05/27 03:25:24;;;;;;;;;;;10.20;99.90;;;;;;5094420;28;19930;-80
2022/05/27 03:28:04;;;;;;;;;;;10.30;99.90;;;;;;5094351;28;19920;-80
2022/05/27 03:30:32;;;;;;;;;;;10.20;99.90;;;;;;5093506;28;19919;-80
2022/05/27 03:33:01;;;;;;;;;;;10.10;99.90;;;;;;5094210;28;19916;-80
2022/05/27 03:35:45;;;;;;;;;;;10.10;99.90;;;;;;5093485;28;20288;-80
2022/05/27 03:38:10;;;;;;;;;;;10.00;99.90;;;;;;5094191;28;19908;-80
2022/05/27 03:40:44;;;;;;;;;;;10.00;99.90;;;;;;5093730;28;20353;-80
2022/05/27 03:43:10;;;;;;;;;;;10.00;99.90;;;;;;5094334;28;19962;-80
2022/05/27 03:45:56;;;;;;;;;;;10.00;99.90;;;;;;5093896;28;19908;-80
2022/05/27 03:48:22;;;;;;;;;;;10.00;99.90;;;;;;5093530;28;20285;-79
2022/05/27 03:50:50;;;;;;;;;;;10.10;99.90;;;;;;5094522;28;19916;-79
2022/05/27 03:53:16;;;;;;;;;;;10.00;99.90;;;;;;5109578;28;19975;-80
2022/05/27 03:55:44;;;;;;;;;;;9.80;99.90;;;;;;5100232;28;20361;-80
2022/05/27 03:58:12;;;;;;;;;;;9.90;99.90;;;;;;5094412;28;19908;-80
2022/05/27 04:00:37;;;;;;;;;;;9.90;99.90;;;;;;5093022;28;20292;-80
2022/05/27 04:03:04;;;;;;;;;;;9.90;99.90;;;;;;5094105;28;19908;-80
2022/05/27 04:05:30;;;;;;;;;;;9.90;99.90;;;;;;5093186;28;19912;-80
2022/05/27 04:07:55;;;;;;;;;;;9.80;99.90;;;;;;5093672;28;20380;-81
2022/05/27 04:10:21;;;;;;;;;;;9.70;99.90;;;;;;5093526;28;19951;-80
2022/05/27 04:12:46;;;;;;;;;;;9.70;99.90;;;;;;5093516;28;19912;-80
2022/05/27 04:15:12;;;;;;;;;;;9.60;99.90;;;;;;5093277;28;19915;-80
2022/05/27 04:17:40;;;;;;;;;;;9.80;99.90;;;;;;5092401;28;19924;-80
2022/05/27 04:20:08;;;;;;;;;;;9.70;99.90;;;;;;5093597;28;19961;-80
2022/05/27 04:22:33;;;;;;;;;;;9.70;99.90;;;;;;5093001;28;19908;-80
2022/05/27 04:24:59;;;;;;;;;;;9.70;99.90;;;;;;5093231;28;20289;-80
2022/05/27 04:27:25;;;;;;;;;;;9.80;99.90;;;;;;5092989;28;20003;-79
2022/05/27 04:29:51;;;;;;;;;;;9.80;99.90;;;;;;5093323;28;19925;-80
2022/05/27 04:32:18;;;;;;;;;;;9.80;99.90;;;;;;5093524;28;19919;-80
2022/05/27 04:34:43;;;;;;;;;;;9.80;99.90;;;;;;5092823;28;19965;-79
2022/05/27 04:37:10;;;;;;;;;;;9.80;99.90;;;;;;5093336;28;19957;-79
2022/05/27 04:39:36;;;;;;;;;;;9.90;99.90;;;;;;5110184;28;19986;-78
2022/05/27 04:42:01;;;;;;;;;;;9.80;99.90;;;;;;5110021;28;20369;-79
2022/05/27 04:44:27;;;;;;;;;;;9.80;99.90;;;;;;5092893;28;19908;-79
2022/05/27 04:46:52;;;;;;;;;;;9.80;99.90;;;;;;5093235;28;19912;-79
2022/05/27 04:52:03;;;;;;;;;;;9.70;99.90;;;;;;5093456;28;20010;-79
2022/05/27 04:54:28;;;;;;;;;;;9.70;99.90;;;;;;5093125;28;19931;-81
2022/05/27 04:56:54;;;;;;;;;;;9.70;99.90;;;;;;5093203;28;20337;-79
2022/05/27 04:59:20;;;;;;;;;;;9.80;99.90;;;;;;5092876;28;19912;-79
2022/05/27 05:01:46;;;;;;;;;;;9.80;99.90;;;;;;5092716;28;20349;-80
2022/05/27 05:04:11;;;;;;;;;;;9.90;99.90;;;;;;5093048;28;19908;-80
2022/05/27 05:06:37;;;;;;;;;;;10.00;99.90;;;;;;5092599;28;19995;-80
2022/05/27 05:09:03;;;;;;;;;;;10.20;99.90;;;;;;5092960;28;19908;-80
2022/05/27 05:11:29;;;;;;;;;;;10.30;99.90;;;;;;5092506;28;19916;-80
2022/05/27 05:13:55;;;;;;;;;;;10.40;99.90;;;;;;5108749;28;20269;-80
2022/05/27 05:16:20;;;;;;;;;;;10.50;99.90;;;;;;5093009;28;19927;-80
2022/05/27 05:18:46;;;;;;;;;;;10.60;99.90;;;;;;5092546;28;20303;-79
2022/05/27 05:21:12;;;;;;;;;;;10.70;99.90;;;;;;5093014;28;20027;-79
2022/05/27 05:23:38;;;;;;;;;;;10.80;99.90;;;;;;5092362;28;20010;-79
2022/05/27 05:26:04;;;;;;;;;;;10.90;99.90;;;;;;5106069;28;19908;-80
2022/05/27 05:28:29;;;;;;;;;;;11.00;99.90;;;;;;5096820;28;19912;-80
2022/05/27 05:30:55;;;;;;;;;;;11.10;99.90;;;;;;5096511;28;19912;-80
2022/05/27 05:33:20;;;;;;;;;;;11.10;99.90;;;;;;5096607;28;19912;-80
2022/05/27 05:35:46;;;;;;;;;;;11.20;99.90;;;;;;5096037;28;20006;-80
2022/05/27 05:38:12;;;;;;;;;;;11.40;99.90;;;;;;5096432;28;19908;-80
2022/05/27 05:40:38;;;;;;;;;;;11.40;99.90;;;;;;5095894;28;19915;-79
2022/05/27 05:43:04;;;;;;;;;;;11.40;99.90;;;;;;5096441;28;19908;-80
2022/05/27 05:45:30;;;;;;;;;;;11.60;99.90;;;;;;5095848;28;19912;-80
2022/05/27 05:47:55;;;;;;;;;;;11.70;99.90;;;;;;5096251;28;20372;-80
2022/05/27 05:50:21;;;;;;;;;;;11.80;99.90;;;;;;5095829;28;19912;-80
2022/05/27 05:52:46;;;;;;;;;;;11.90;99.90;;;;;;5095780;28;19912;-80
2022/05/27 05:55:13;;;;;;;;;;;12.00;99.90;;;;;;5096251;28;19921;-80
2022/05/27 05:57:41;;;;;;;;;;;12.00;99.90;;;;;;5095304;28;20365;-81
2022/05/27 06:00:07;;;;;;;;;;;11.90;99.90;;;;;;5095995;28;19951;-80
2022/05/27 06:02:33;;;;;;;;;;;12.10;99.90;;;;;;5095474;28;19973;-79
2022/05/27 06:04:58;;;;;;;;;;;12.20;99.90;;;;;;5096047;28;20349;-80
2022/05/27 06:07:24;;;;;;;;;;;12.30;99.90;;;;;;5095872;28;20218;-80
2022/05/27 06:09:50;;;;;;;;;;;12.40;99.90;;;;;;5096299;28;19918;-79
2022/05/27 06:12:21;;;;;;;;;;;12.60;99.90;;;;;;5099880;28;19954;-79
2022/05/27 06:14:46;;;;;;;;;;;12.80;99.90;;;;;;5095328;28;20436;-79
2022/05/27 06:17:12;;;;;;;;;;;12.90;99.90;;;;;;5095635;28;19959;-79
2022/05/27 06:19:37;;;;;;;;;;;13.00;99.90;;;;;;5095201;28;20269;-79
2022/05/27 06:22:03;;;;;;;;;;;13.20;99.90;;;;;;5095322;28;19908;-79
2022/05/27 06:24:29;;;;;;;;;;;13.10;99.90;;;;;;5095647;28;19919;-79
2022/05/27 06:26:54;;;;;;;;;;;13.00;99.90;;;;;;5095363;28;19923;-79
2022/05/27 06:34:48;;;;;;;;;;;12.70;99.90;;;;;;5094812;28;19915;-80
2022/05/27 06:37:15;;;;;;;;;;;12.60;99.90;;;;;;5095344;28;19909;-80
2022/05/27 06:39:41;;;;;;;;;;;12.50;99.90;;;;;;5093457;28;19914;-81
2022/05/27 06:42:08;;;;;;;;;;;12.60;99.90;;;;;;5095253;28;19908;-80
2022/05/27 06:44:34;;;;;;;;;;;12.90;99.90;;;;;;5094685;28;19908;-80
2022/05/27 06:47:00;;;;;;;;;;;13.20;99.90;;;;;;5095133;28;19912;-80
2022/05/27 06:49:26;;;;;;;;;;;13.50;99.90;;;;;;5094763;28;19961;-81
2022/05/27 06:51:51;;;;;;;;;;;13.80;99.90;;;;;;5094620;28;19923;-80
2022/05/27 06:54:18;;;;;;;;;;;13.90;99.90;;;;;;5094925;28;20261;-80
2022/05/27 06:56:44;;;;;;;;;;;14.00;99.90;;;;;;5094500;28;20007;-80
2022/05/27 06:59:10;;;;;;;;;;;14.00;99.90;;;;;;5094777;28;19965;-81
2022/05/27 07:01:36;;;;;;;;;;;14.10;99.90;;;;;;5094114;28;19968;-80
2022/05/27 07:04:02;;;;;;;;;;;14.10;99.90;;;;;;5094607;28;19999;-81
2022/05/27 07:06:33;;;;;;;;;;;14.20;99.90;;;;;;5094801;28;19908;-81
2022/05/27 07:09:01;;;;;;;;;;;14.30;99.90;;;;;;5094847;28;19908;-80
2022/05/27 07:11:27;;;;;;;;;;;14.50;99.90;;;;;;5094566;28;20015;-80
2022/05/27 07:13:52;;;;;;;;;;;14.50;99.90;;;;;;5094572;28;20000;-81
2022/05/27 07:16:18;;;;;;;;;;;14.50;99.90;;;;;;5094103;28;19951;-81
2022/05/27 07:18:44;;;;;;;;;;;14.40;99.90;;;;;;5094026;28;19943;-80
2022/05/27 07:21:09;;;;;;;;;;;14.60;99.90;;;;;;5094144;28;19912;-81
2022/05/27 07:23:35;;;;;;;;;;;14.60;99.90;;;;;;5093873;28;19912;-80
2022/05/27 07:26:01;;;;;;;;;;;14.70;99.90;;;;;;5094095;28;19915;-80
2022/05/27 07:28:27;;;;;;;;;;;14.80;99.90;;;;;;5094312;28;19908;-80
2022/05/27 07:30:53;;;;;;;;;;;15.00;99.90;;;;;;5093811;28;20322;-80
2022/05/27 07:33:20;;;;;;;;;;;15.10;99.90;;;;;;5094178;28;19947;-80
2022/05/27 07:35:46;;;;;;;;;;;15.10;99.90;;;;;;5093679;28;19912;-80
2022/05/27 07:38:12;;;;;;;;;;;15.20;99.90;;;;;;5094230;28;19908;-81
2022/05/27 07:40:38;;;;;;;;;;;15.40;99.90;;;;;;5093808;28;19954;-80
2022/05/27 07:43:06;;;;;;;;;;;15.50;99.90;;;;;;5094242;28;19977;-81
2022/05/27 07:45:32;;;;;;;;;;;15.40;99.90;;;;;;5093982;28;19915;-81
2022/05/27 07:47:57;;;;;;;;;;;15.60;99.90;;;;;;5093341;28;19961;-81
2022/05/27 07:50:23;;;;;;;;;;;15.50;99.90;;;;;;5093799;28;19912;-81
2022/05/27 07:52:49;;;;;;;;;;;15.60;99.90;;;;;;5093539;28;19937;-81
2022/05/27 07:55:15;;;;;;;;;;;15.60;99.90;;;;;;5093829;28;19951;-81
2022/05/27 07:57:45;;;;;;;;;;;15.60;99.90;;;;;;5093190;28;20292;-80
2022/05/27 08:00:20;;;;;;;;;;;15.60;99.90;;;;;;5093743;28;19912;-82
2022/05/27 08:02:46;;;;;;;;;;;15.60;99.90;;;;;;5093429;28;19916;-81
2022/05/27 08:05:19;;;;;;;;;;;15.50;99.90;;;;;;5093677;28;20410;-81
2022/05/27 08:07:45;;;;;;;;;;;15.60;99.90;;;;;;5092890;28;20277;-81
2022/05/27 08:10:12;;;;;;;;;;;15.70;99.90;;;;;;5093789;28;19912;-81
2022/05/27 08:12:38;;;;;;;;;;;15.80;99.90;;;;;;5093263;28;19912;-80
2022/05/27 08:15:03;;;;;;;;;;;15.70;99.90;;;;;;5093732;28;19915;-81
2022/05/27 08:17:29;;;;;;;;;;;15.80;99.90;;;;;;5093662;28;19924;-80
2022/05/27 08:19:55;;;;;;;;;;;15.80;99.90;;;;;;5093487;28;20009;-80
2022/05/27 08:22:20;;;;;;;;;;;15.70;99.90;;;;;;5093129;28;19915;-80
2022/05/27 08:24:46;;;;;;;;;;;15.70;99.90;;;;;;5092914;28;19916;-80
2022/05/27 08:27:12;;;;;;;;;;;15.60;99.90;;;;;;5093773;28;19948;-81
2022/05/27 08:29:37;;;;;;;;;;;15.50;99.90;;;;;;5092970;28;19908;-77
2022/05/27 08:32:03;;;;;;;;;;;15.60;99.90;;;;;;5093359;28;19919;-81
2022/05/27 08:40:01;;;;;;;;;;;15.90;99.90;;;;;;5093075;28;19930;-80
2022/05/27 08:42:43;;;;;;;;;;;16.00;99.90;;;;;;5093184;28;20254;-82
2022/05/27 08:45:13;;;;;;;;;;;15.90;99.90;;;;;;5093423;28;19977;-81
2022/05/27 08:47:44;;;;;;;;;;;15.90;99.90;;;;;;5092840;28;19908;-79
2022/05/27 08:50:09;;;;;;;;;;;15.90;99.90;;;;;;5093192;28;19925;-81
2022/05/27 08:52:44;;;;;;;;;;;15.90;99.90;;;;;;5092874;28;19938;-81
2022/05/27 09:00:59;;;;;;;;;;;16.20;99.90;;;;;;5092746;28;20711;-81
2022/05/27 09:03:26;;;;;;;;;;;16.30;99.90;;;;;;5094730;28;19908;-81
2022/05/27 09:05:59;;;;;;;;;;;16.30;99.90;;;;;;5096718;28;19907;-81
2022/05/27 09:08:25;;;;;;;;;;;16.30;99.90;;;;;;5097241;28;19915;-81
2022/05/27 09:11:11;;;;;;;;;;;16.30;99.90;;;;;;5096409;28;19912;-81
2022/05/27 09:13:58;;;;;;;;;;;16.30;99.90;;;;;;5096601;28;20277;-81
2022/05/27 09:16:37;;;;;;;;;;;16.40;99.90;;;;;;5109573;28;19921;-80
2022/05/27 09:19:17;;;;;;;;;;;16.40;99.90;;;;;;5108956;28;19908;-80
2022/05/27 09:22:06;;;;;;;;;;;16.30;99.90;;;;;;5098373;28;19908;-80
2022/05/27 09:24:50;;;;;;;;;;;16.40;99.90;;;;;;5097597;28;20323;-81
2022/05/27 09:27:22;;;;;;;;;;;16.30;99.90;;;;;;5097029;28;19908;-80
2022/05/27 09:29:51;;;;;;;;;;;16.40;99.90;;;;;;5095917;28;20258;-82
2022/05/27 09:32:35;;;;;;;;;;;16.40;99.90;;;;;;5096787;28;19912;-81
2022/05/27 09:35:10;;;;;;;;;;;16.50;99.90;;;;;;5096156;28;19999;-81
2022/05/27 09:37:38;;;;;;;;;;;16.60;99.90;;;;;;5096559;28;19908;-82
2022/05/27 09:40:13;;;;;;;;;;;16.50;99.90;;;;;;5095804;28;20254;-81
2022/05/27 09:42:43;;;;;;;;;;;16.70;99.90;;;;;;5096503;28;19908;-81
2022/05/27 09:45:09;;;;;;;;;;;16.60;99.90;;;;;;5096526;28;19958;-82
2022/05/27 09:47:35;;;;;;;;;;;16.50;99.90;;;;;;5096233;28;19916;-82
2022/05/27 09:50:04;;;;;;;;;;;16.20;99.90;;;;;;5095803;28;19912;-81
2022/05/27 09:52:32;;;;;;;;;;;16.30;99.90;;;;;;5096132;28;20026;-80
2022/05/27 09:55:00;;;;;;;;;;;16.40;99.90;;;;;;5096041;28;19915;-81
2022/05/27 09:57:26;;;;;;;;;;;16.50;99.90;;;;;;5096156;28;19912;-82
2022/05/27 10:00:04;;;;;;;;;;;16.60;99.90;;;;;;5095580;28;19908;-81
2022/05/27 10:02:37;;;;;;;;;;;16.60;99.90;;;;;;5096090;28;19972;-81
2022/05/27 10:05:02;;;;;;;;;;;16.60;99.90;;;;;;5095732;28;19908;-82
2022/05/27 10:07:49;;;;;;;;;;;16.60;99.90;;;;;;5096090;28;19908;-81
2022/05/27 10:10:24;;;;;;;;;;;16.60;99.90;;;;;;5095947;28;19923;-80
2022/05/27 10:12:50;;;;;;;;;;;16.70;99.90;;;;;;5100524;28;19912;-81
2022/05/27 10:15:28;;;;;;;;;;;16.70;99.90;;;;;;5094587;28;19908;-82
2022/05/27 10:17:54;;;;;;;;;;;16.90;99.90;;;;;;5095617;28;20061;-81
2022/05/27 10:20:26;;;;;;;;;;;17.00;99.90;;;;;;5096285;28;19948;-81
2022/05/27 10:23:03;;;;;;;;;;;17.00;99.90;;;;;;5095269;28;19912;-82
2022/05/27 10:25:30;;;;;;;;;;;17.00;99.90;;;;;;5096016;28;19915;-81
2022/05/27 10:27:56;;;;;;;;;;;17.10;99.90;;;;;;5095217;28;20262;-80
2022/05/27 10:30:24;;;;;;;;;;;17.10;99.90;;;;;;5095546;28;20011;-81
2022/05/27 10:32:50;;;;;;;;;;;17.10;99.90;;;;;;5095245;28;19942;-81
2022/05/27 10:35:15;;;;;;;;;;;17.00;99.90;;;;;;5095872;28;19937;-81
2022/05/27 10:37:44;;;;;;;;;;;17.00;99.90;;;;;;5095526;28;19916;-82
2022/05/27 10:40:10;;;;;;;;;;;16.90;99.90;;;;;;5094795;28;19912;-81
2022/05/27 10:42:39;;;;;;;;;;;16.90;99.90;;;;;;5095125;28;19915;-81
2022/05/27 10:45:26;;;;;;;;;;;16.90;99.90;;;;;;5095141;28;19908;-82
2022/05/27 10:48:11;;;;;;;;;;;16.90;99.90;;;;;;5095201;28;19953;-81
2022/05/27 10:50:53;;;;;;;;;;;17.00;99.90;;;;;;5095802;28;20408;-82
2022/05/27 10:53:18;;;;;;;;;;;17.10;99.90;;;;;;5095783;28;20375;-80
2022/05/27 10:55:54;;;;;;;;;;;17.20;99.90;;;;;;5100441;28;20018;-81
2022/05/27 11:04:45;;;;;;;;;;;17.20;99.90;;;;;;5099689;28;19930;-81
2022/05/27 11:07:31;;;;;;;;;;;17.20;99.90;;;;;;5094347;28;20314;-81
2022/05/27 11:09:59;;;;;;;;;;;17.20;99.90;;;;;;5093670;28;20053;-81
2022/05/27 11:15:33;;;;;;;;;;;17.20;99.90;;;;;;5094686;28;19915;-81
2022/05/27 11:18:01;;;;;;;;;;;17.20;99.90;;;;;;5093678;28;19920;-81
2022/05/27 11:21:05;;;;;;;;;;;17.20;99.90;;;;;;5094475;28;19915;-81
2022/05/27 11:23:34;;;;;;;;;;;17.30;99.90;;;;;;5051768;28;19908;-81
2022/05/27 11:26:07;;;;;;;;;;;17.40;99.90;;;;;;5050964;28;19913;-81
2022/05/27 11:28:51;;;;;;;;;;;17.40;99.90;;;;;;5074359;28;19968;-81
2022/05/27 11:31:18;;;;;;;;;;;17.30;99.90;;;;;;5094511;28;19916;-82
2022/05/27 11:33:46;;;;;;;;;;;17.30;99.90;;;;;;5094212;28;19956;-81
2022/05/27 11:36:30;;;;;;;;;;;17.40;99.90;;;;;;5093527;28;20318;-81
2022/05/27 11:39:01;;;;;;;;;;;17.30;99.90;;;;;;5093406;28;19912;-81
2022/05/27 11:41:28;;;;;;;;;;;17.50;99.90;;;;;;5094128;28;19908;-81
2022/05/27 11:44:10;;;;;;;;;;;17.40;99.90;;;;;;5093549;28;19908;-81
2022/05/27 11:46:47;;;;;;;;;;;17.50;99.90;;;;;;5094072;28;19908;-81
2022/05/27 11:49:31;;;;;;;;;;;17.60;99.90;;;;;;5093240;28;19915;-81
2022/05/27 11:52:02;;;;;;;;;;;17.60;99.90;;;;;;5093478;28;20391;-81
2022/05/27 11:54:48;;;;;;;;;;;17.50;99.90;;;;;;5093926;28;19970;-82
2022/05/27 11:57:19;;;;;;;;;;;17.30;99.90;;;;;;5093300;28;19998;-81
2022/05/27 11:59:53;;;;;;;;;;;17.30;99.90;;;;;;5093646;28;19954;-81
2022/05/27 12:02:24;;;;;;;;;;;17.40;99.90;;;;;;5094010;28;19908;-81
2022/05/27 12:05:02;;;;;;;;;;;17.20;99.90;;;;;;5093664;28;19963;-77
2022/05/27 12:07:46;;;;;;;;;;;17.20;99.90;;;;;;5093613;28;20354;-81
2022/05/27 12:10:12;;;;;;;;;;;17.20;99.90;;;;;;5092912;28;20250;-82
2022/05/27 12:12:42;;;;;;;;;;;17.00;99.90;;;;;;5093512;28;19919;-81
2022/05/27 12:15:09;;;;;;;;;;;17.20;99.90;;;;;;5092895;28;19914;-81
2022/05/27 12:17:47;;;;;;;;;;;17.30;99.90;;;;;;5093694;28;19927;-81
2022/05/27 12:20:17;;;;;;;;;;;17.30;99.90;;;;;;5093157;28;20015;-81
2022/05/27 12:22:45;;;;;;;;;;;17.50;99.90;;;;;;5093373;28;19908;-81
2022/05/27 12:25:21;;;;;;;;;;;17.80;99.90;;;;;;5093062;28;19989;-81
2022/05/27 12:27:49;;;;;;;;;;;17.90;99.90;;;;;;5093691;28;19958;-81
2022/05/27 12:30:15;;;;;;;;;;;17.90;99.90;;;;;;5094183;28;19912;-81
2022/05/27 12:32:43;;;;;;;;;;;17.80;99.90;;;;;;5093315;28;19919;-82
2022/05/27 12:35:26;;;;;;;;;;;17.70;99.90;;;;;;5093200;28;19908;-81
2022/05/27 12:37:57;;;;;;;;;;;17.70;99.90;;;;;;5092394;28;19908;-82
2022/05/27 12:40:26;;;;;;;;;;;17.70;99.90;;;;;;5093211;28;19999;-82
2022/05/27 12:42:54;;;;;;;;;;;17.50;99.90;;;;;;5093215;28;19999;-81
2022/05/27 12:45:20;;;;;;;;;;;17.60;99.90;;;;;;5093278;28;19914;-82
2022/05/27 12:47:49;;;;;;;;;;;17.50;99.90;;;;;;5093193;28;19916;-82
2022/05/27 12:50:17;;;;;;;;;;;17.30;99.90;;;;;;5092577;28;19919;-81
2022/05/27 12:52:45;;;;;;;;;;;17.30;99.90;;;;;;5092886;28;19912;-81
2022/05/27 12:55:12;;;;;;;;;;;17.40;99.90;;;;;;5091999;28;19916;-81
2022/05/27 13:03:44;;;;;;;;;;;17.90;99.90;;;;;;5092003;28;19915;-81
2022/05/27 13:06:14;;;;;;;;;;;18.10;99.90;;;;;;5090418;28;19912;-82
2022/05/27 13:08:48;;;;;;;;;;;18.00;99.90;;;;;;5092667;28;20045;-82
2022/05/27 13:11:15;;;;;;;;;;;17.80;99.90;;;;;;5092285;28;19981;-81
2022/05/27 13:13:40;;;;;;;;;;;17.60;99.90;;;;;;5092757;28;19912;-82
2022/05/27 13:16:26;;;;;;;;;;;17.70;99.90;;;;;;5099090;28;19926;-82
2022/05/27 13:19:12;;;;;;;;;;;17.60;99.90;;;;;;5086641;28;19908;-83
2022/05/27 13:21:41;;;;;;;;;;;17.80;99.90;;;;;;5088615;28;19908;-81
2022/05/27 13:24:12;;;;;;;;;;;17.70;99.90;;;;;;5093123;28;19915;-82
2022/05/27 13:26:47;;;;;;;;;;;17.70;99.90;;;;;;5092776;28;19908;-82
2022/05/27 13:29:15;;;;;;;;;;;17.70;99.90;;;;;;5092346;28;19909;-82
2022/05/27 13:31:42;;;;;;;;;;;17.60;99.90;;;;;;5092714;28;19912;-82
2022/05/27 13:34:12;;;;;;;;;;;17.50;99.90;;;;;;5092080;28;20361;-82
2022/05/27 13:36:40;;;;;;;;;;;17.30;99.90;;;;;;5092537;28;19908;-81
2022/05/27 13:39:08;;;;;;;;;;;17.40;99.90;;;;;;5092090;28;19992;-82
2022/05/27 13:41:38;;;;;;;;;;;17.40;99.90;;;;;;5092770;28;19908;-82
2022/05/27 13:44:06;;;;;;;;;;;17.40;99.90;;;;;;5092185;28;19908;-81
2022/05/27 13:46:36;;;;;;;;;;;17.70;99.90;;;;;;5092436;28;19908;-81
2022/05/27 13:49:07;;;;;;;;;;;18.10;99.90;;;;;;5093094;28;19915;-81
2022/05/27 13:51:38;;;;;;;;;;;18.40;99.90;;;;;;5096013;28;19912;-82
2022/05/27 13:54:12;;;;;;;;;;;18.70;99.90;;;;;;5095802;28;19919;-82
2022/05/27 13:56:38;;;;;;;;;;;18.80;99.90;;;;;;5096452;28;19908;-81
2022/05/27 13:59:05;;;;;;;;;;;18.90;99.90;;;;;;5111170;28;20265;-81
2022/05/27 14:01:36;;;;;;;;;;;19.10;99.90;;;;;;5096098;28;19951;-82
2022/05/27 14:04:09;;;;;;;;;;;19.00;99.90;;;;;;5100061;28;20357;-81
2022/05/27 14:06:35;;;;;;;;;;;18.90;99.90;;;;;;5112117;28;19908;-82
2022/05/27 14:09:15;;;;;;;;;;;18.60;99.90;;;;;;5098892;28;19908;-81
2022/05/27 14:11:47;;;;;;;;;;;18.70;99.90;;;;;;5097083;28;19916;-81
2022/05/27 14:14:12;;;;;;;;;;;19.00;99.90;;;;;;5095605;28;19916;-82
2022/05/27 14:16:41;;;;;;;;;;;19.10;99.90;;;;;;5095632;28;19988;-83
2022/05/27 14:19:08;;;;;;;;;;;19.10;99.90;;;;;;5095075;28;19908;-78
2022/05/27 14:24:27;;;;;;;;;;;19.20;99.90;;;;;;5095088;28;19915;-80
2022/05/27 14:26:53;;;;;;;;;;;19.30;99.90;;;;;;5095658;28;20307;-81
2022/05/27 14:29:20;;;;;;;;;;;19.20;99.90;;;;;;5110951;28;19980;-81
2022/05/27 14:31:46;;;;;;;;;;;19.30;99.90;;;;;;5095029;28;20285;-81
2022/05/27 14:34:13;;;;;;;;;;;19.20;99.90;;;;;;5095033;28;19912;-81
2022/05/27 14:36:41;;;;;;;;;;;19.10;99.90;;;;;;5095487;28;19908;-80
2022/05/27 14:39:07;;;;;;;;;;;19.10;99.90;;;;;;5094943;28;19908;-81
2022/05/27 14:41:39;;;;;;;;;;;19.20;99.90;;;;;;5095194;28;20028;-82
2022/05/27 14:44:05;;;;;;;;;;;19.30;99.90;;;;;;5094738;28;19909;-81
2022/05/27 14:46:38;;;;;;;;;;;19.40;99.90;;;;;;5095158;28;19912;-81
2022/05/27 14:49:27;;;;;;;;;;;19.50;99.90;;;;;;5094937;28;19954;-81
2022/05/27 14:51:53;;;;;;;;;;;19.30;99.90;;;;;;5089197;28;19961;-82
2022/05/27 14:54:34;;;;;;;;;;;19.40;99.90;;;;;;5119817;28;19908;-81
2022/05/27 14:57:32;;;;;;;;;;;19.70;99.90;;;;;;5112752;28;19965;-83
2022/05/27 15:00:00;;;;;;;;;;;19.90;99.90;;;;;;5071107;28;19915;-82
2022/05/27 15:02:28;;;;;;;;;;;19.90;99.90;;;;;;5093879;28;19969;-81
2022/05/27 15:04:56;;;;;;;;;;;20.20;99.90;;;;;;5094563;28;20289;-82
2022/05/27 15:07:28;;;;;;;;;;;20.40;99.90;;;;;;5094421;28;20408;-82
2022/05/27 15:10:01;;;;;;;;;;;20.70;99.90;;;;;;5094624;28;20288;-82
2022/05/27 15:12:28;;;;;;;;;;;20.50;99.90;;;;;;5094636;28;19915;-82
2022/05/27 15:14:54;;;;;;;;;;;20.60;99.90;;;;;;5094390;28;20258;-83
2022/05/27 15:17:22;;;;;;;;;;;21.00;99.90;;;;;;5093982;28;19924;-82
2022/05/27 15:19:50;;;;;;;;;;;20.90;99.90;;;;;;5094120;28;20269;-83